Spencer, Indiana
Current Conditions -  °F | °C
As of 12:53 AM on Saturday 20 Dec 2014 (Local Time) from KBMG Reporting Station
Overcast Overcast  
Wind Chill: 25°   Ceiling: 2500
Heat Index: 30°   Visibility: 10mi
Dew Point: 23°   Wind: 5mph
Humidity: 75%   Direction: 140°SE
Pressure: 30.27"   Gusts: NA
Location:  39.29°N, 86.76°W
Report Text: KBMG 200553Z 14004KT 10SM OVC025 M01/M05 A3027 RMK AO2 SLP256 T10111050 11006 21011 53005
Loading
Personal Weather Stations






























Interactive Weather Map New forecast layout! Learn more

10-Day Weather Forecast

Advertisements
Track Severe Weather on mobile